sensor_id;sensor_type;location;lat;lon;timestamp;P1;durP1;ratioP1;P2;durP2;ratioP2
20336;SDS011;10326;53.660;10.200;2023-03-15T00:01:31;4.43;;;1.50;;
20336;SDS011;10326;53.660;10.200;2023-03-15T00:03:59;2.73;;;1.50;;
20336;SDS011;10326;53.660;10.200;2023-03-15T00:06:30;3.20;;;1.80;;
20336;SDS011;10326;53.660;10.200;2023-03-15T00:08:58;4.70;;;1.83;;
20336;SDS011;10326;53.660;10.200;2023-03-15T00:11:27;3.13;;;1.57;;
20336;SDS011;10326;53.660;10.200;2023-03-15T00:13:56;3.90;;;1.87;;
20336;SDS011;10326;53.660;10.200;2023-03-15T00:16:24;4.87;;;1.80;;
20336;SDS011;10326;53.660;10.200;2023-03-15T00:18:52;4.40;;;1.90;;
20336;SDS011;10326;53.660;10.200;2023-03-15T00:21:20;6.17;;;1.93;;
20336;SDS011;10326;53.660;10.200;2023-03-15T00:23:48;5.87;;;1.97;;
20336;SDS011;10326;53.660;10.200;2023-03-15T00:26:16;4.83;;;2.00;;
20336;SDS011;10326;53.660;10.200;2023-03-15T00:28:44;3.10;;;1.90;;
20336;SDS011;10326;53.660;10.200;2023-03-15T00:31:13;5.70;;;1.77;;
20336;SDS011;10326;53.660;10.200;2023-03-15T00:33:43;3.47;;;1.50;;
20336;SDS011;10326;53.660;10.200;2023-03-15T00:36:11;3.90;;;1.70;;
20336;SDS011;10326;53.660;10.200;2023-03-15T00:38:40;4.93;;;2.00;;
20336;SDS011;10326;53.660;10.200;2023-03-15T00:41:09;3.97;;;1.80;;
20336;SDS011;10326;53.660;10.200;2023-03-15T00:43:39;5.13;;;1.87;;
20336;SDS011;10326;53.660;10.200;2023-03-15T00:46:08;3.70;;;1.90;;
20336;SDS011;10326;53.660;10.200;2023-03-15T00:48:36;4.93;;;2.03;;
20336;SDS011;10326;53.660;10.200;2023-03-15T00:51:04;3.73;;;2.00;;
20336;SDS011;10326;53.660;10.200;2023-03-15T00:53:36;4.33;;;2.17;;
20336;SDS011;10326;53.660;10.200;2023-03-15T00:56:07;3.37;;;1.77;;
20336;SDS011;10326;53.660;10.200;2023-03-15T00:58:36;4.60;;;2.07;;
20336;SDS011;10326;53.660;10.200;2023-03-15T01:01:05;3.47;;;2.00;;
20336;SDS011;10326;53.660;10.200;2023-03-15T01:03:34;3.50;;;1.90;;
20336;SDS011;10326;53.660;10.200;2023-03-15T01:06:03;5.47;;;1.87;;
20336;SDS011;10326;53.660;10.200;2023-03-15T01:08:32;2.77;;;1.77;;
20336;SDS011;10326;53.660;10.200;2023-03-15T01:11:03;3.23;;;1.90;;
20336;SDS011;10326;53.660;10.200;2023-03-15T01:13:31;4.70;;;1.93;;
20336;SDS011;10326;53.660;10.200;2023-03-15T01:15:59;2.27;;;1.80;;
20336;SDS011;10326;53.660;10.200;2023-03-15T01:18:27;3.10;;;1.93;;
20336;SDS011;10326;53.660;10.200;2023-03-15T01:20:57;3.90;;;1.83;;
20336;SDS011;10326;53.660;10.200;2023-03-15T01:23:24;5.03;;;2.10;;
20336;SDS011;10326;53.660;10.200;2023-03-15T01:25:52;4.83;;;1.77;;
20336;SDS011;10326;53.660;10.200;2023-03-15T01:28:19;3.37;;;1.67;;
20336;SDS011;10326;53.660;10.200;2023-03-15T01:30:50;4.13;;;1.80;;
20336;SDS011;10326;53.660;10.200;2023-03-15T01:33:17;2.97;;;1.60;;
20336;SDS011;10326;53.660;10.200;2023-03-15T01:35:45;3.60;;;1.70;;
20336;SDS011;10326;53.660;10.200;2023-03-15T01:38:15;3.63;;;1.60;;
20336;SDS011;10326;53.660;10.200;2023-03-15T01:40:43;3.80;;;1.63;;
20336;SDS011;10326;53.660;10.200;2023-03-15T01:43:14;3.23;;;1.77;;
20336;SDS011;10326;53.660;10.200;2023-03-15T01:45:52;2.47;;;1.70;;
20336;SDS011;10326;53.660;10.200;2023-03-15T01:48:32;3.07;;;1.93;;
20336;SDS011;10326;53.660;10.200;2023-03-15T01:51:05;3.27;;;1.77;;
20336;SDS011;10326;53.660;10.200;2023-03-15T01:53:40;4.00;;;1.90;;
20336;SDS011;10326;53.660;10.200;2023-03-15T01:56:13;4.63;;;2.07;;
20336;SDS011;10326;53.660;10.200;2023-03-15T01:58:41;4.30;;;2.07;;
20336;SDS011;10326;53.660;10.200;2023-03-15T02:01:11;4.87;;;2.00;;
20336;SDS011;10326;53.660;10.200;2023-03-15T02:03:44;2.23;;;1.70;;
20336;SDS011;10326;53.660;10.200;2023-03-15T02:06:16;4.67;;;1.87;;
20336;SDS011;10326;53.660;10.200;2023-03-15T02:08:55;4.40;;;2.20;;
20336;SDS011;10326;53.660;10.200;2023-03-15T02:11:30;3.20;;;1.80;;
20336;SDS011;10326;53.660;10.200;2023-03-15T02:13:59;3.53;;;1.83;;
20336;SDS011;10326;53.660;10.200;2023-03-15T02:16:28;2.53;;;1.60;;
20336;SDS011;10326;53.660;10.200;2023-03-15T02:19:00;2.63;;;1.70;;
20336;SDS011;10326;53.660;10.200;2023-03-15T02:21:32;3.63;;;1.80;;
20336;SDS011;10326;53.660;10.200;2023-03-15T02:24:16;1.63;;;1.53;;
20336;SDS011;10326;53.660;10.200;2023-03-15T02:26:53;2.03;;;1.70;;
20336;SDS011;10326;53.660;10.200;2023-03-15T02:29:24;2.83;;;1.50;;
20336;SDS011;10326;53.660;10.200;2023-03-15T02:31:54;3.50;;;2.23;;
20336;SDS011;10326;53.660;10.200;2023-03-15T02:34:24;2.00;;;1.40;;
20336;SDS011;10326;53.660;10.200;2023-03-15T02:36:51;2.70;;;1.67;;
20336;SDS011;10326;53.660;10.200;2023-03-15T02:39:20;3.03;;;1.67;;
20336;SDS011;10326;53.660;10.200;2023-03-15T02:41:48;2.90;;;1.40;;
20336;SDS011;10326;53.660;10.200;2023-03-15T02:44:20;3.07;;;1.90;;
20336;SDS011;10326;53.660;10.200;2023-03-15T02:46:52;2.63;;;1.80;;
20336;SDS011;10326;53.660;10.200;2023-03-15T02:49:24;2.20;;;2.00;;
20336;SDS011;10326;53.660;10.200;2023-03-15T02:51:56;2.93;;;2.13;;
20336;SDS011;10326;53.660;10.200;2023-03-15T02:54:24;2.53;;;2.30;;
20336;SDS011;10326;53.660;10.200;2023-03-15T02:56:51;2.57;;;2.30;;
20336;SDS011;10326;53.660;10.200;2023-03-15T02:59:18;3.47;;;2.27;;
20336;SDS011;10326;53.660;10.200;2023-03-15T03:01:47;2.30;;;2.10;;
20336;SDS011;10326;53.660;10.200;2023-03-15T03:04:16;2.83;;;2.20;;
20336;SDS011;10326;53.660;10.200;2023-03-15T03:06:44;2.63;;;2.43;;
20336;SDS011;10326;53.660;10.200;2023-03-15T03:09:15;3.60;;;2.60;;
20336;SDS011;10326;53.660;10.200;2023-03-15T03:11:43;5.07;;;2.57;;
20336;SDS011;10326;53.660;10.200;2023-03-15T03:14:11;2.70;;;2.40;;
20336;SDS011;10326;53.660;10.200;2023-03-15T03:16:40;2.70;;;2.50;;
20336;SDS011;10326;53.660;10.200;2023-03-15T03:19:09;3.27;;;2.40;;
20336;SDS011;10326;53.660;10.200;2023-03-15T03:21:38;2.70;;;2.50;;
20336;SDS011;10326;53.660;10.200;2023-03-15T03:24:09;3.60;;;2.60;;
20336;SDS011;10326;53.660;10.200;2023-03-15T03:26:40;2.83;;;2.63;;
20336;SDS011;10326;53.660;10.200;2023-03-15T03:29:12;2.87;;;2.60;;
20336;SDS011;10326;53.660;10.200;2023-03-15T03:31:42;3.03;;;2.63;;
20336;SDS011;10326;53.660;10.200;2023-03-15T03:34:11;3.67;;;2.53;;
20336;SDS011;10326;53.660;10.200;2023-03-15T03:36:39;3.80;;;2.70;;
20336;SDS011;10326;53.660;10.200;2023-03-15T03:39:07;6.10;;;3.20;;
20336;SDS011;10326;53.660;10.200;2023-03-15T03:41:35;3.80;;;3.10;;
20336;SDS011;10326;53.660;10.200;2023-03-15T03:44:03;3.03;;;2.83;;
20336;SDS011;10326;53.660;10.200;2023-03-15T03:46:31;3.83;;;3.00;;
20336;SDS011;10326;53.660;10.200;2023-03-15T03:48:59;3.33;;;3.03;;
20336;SDS011;10326;53.660;10.200;2023-03-15T03:51:27;5.27;;;3.60;;
20336;SDS011;10326;53.660;10.200;2023-03-15T03:53:55;3.67;;;3.20;;
20336;SDS011;10326;53.660;10.200;2023-03-15T03:56:22;3.50;;;2.93;;
20336;SDS011;10326;53.660;10.200;2023-03-15T03:58:49;5.17;;;3.20;;
20336;SDS011;10326;53.660;10.200;2023-03-15T04:01:26;3.60;;;3.30;;
20336;SDS011;10326;53.660;10.200;2023-03-15T04:03:54;4.30;;;3.40;;
20336;SDS011;10326;53.660;10.200;2023-03-15T04:06:22;3.07;;;2.60;;
20336;SDS011;10326;53.660;10.200;2023-03-15T04:08:52;4.03;;;3.40;;
20336;SDS011;10326;53.660;10.200;2023-03-15T04:11:26;5.00;;;3.20;;
20336;SDS011;10326;53.660;10.200;2023-03-15T04:13:57;3.37;;;2.97;;
20336;SDS011;10326;53.660;10.200;2023-03-15T04:16:27;4.23;;;3.33;;
20336;SDS011;10326;53.660;10.200;2023-03-15T04:18:59;3.97;;;3.57;;
20336;SDS011;10326;53.660;10.200;2023-03-15T04:21:29;3.67;;;3.37;;
20336;SDS011;10326;53.660;10.200;2023-03-15T04:24:08;4.40;;;3.20;;
20336;SDS011;10326;53.660;10.200;2023-03-15T04:26:51;4.07;;;3.50;;
20336;SDS011;10326;53.660;10.200;2023-03-15T04:29:39;4.10;;;3.70;;
20336;SDS011;10326;53.660;10.200;2023-03-15T04:32:17;3.77;;;3.20;;
20336;SDS011;10326;53.660;10.200;2023-03-15T04:35:05;3.83;;;3.27;;
20336;SDS011;10326;53.660;10.200;2023-03-15T04:38:02;4.03;;;3.10;;
20336;SDS011;10326;53.660;10.200;2023-03-15T04:40:57;3.93;;;3.30;;
20336;SDS011;10326;53.660;10.200;2023-03-15T04:43:40;4.23;;;3.47;;
20336;SDS011;10326;53.660;10.200;2023-03-15T04:46:23;4.17;;;3.77;;
20336;SDS011;10326;53.660;10.200;2023-03-15T04:49:07;3.60;;;3.23;;
20336;SDS011;10326;53.660;10.200;2023-03-15T04:51:52;4.30;;;3.07;;
20336;SDS011;10326;53.660;10.200;2023-03-15T04:54:48;4.10;;;3.10;;
20336;SDS011;10326;53.660;10.200;2023-03-15T04:57:35;3.27;;;3.00;;
20336;SDS011;10326;53.660;10.200;2023-03-15T05:00:26;3.83;;;3.07;;
20336;SDS011;10326;53.660;10.200;2023-03-15T05:03:26;2.73;;;2.50;;
20336;SDS011;10326;53.660;10.200;2023-03-15T05:05:53;3.20;;;2.90;;
20336;SDS011;10326;53.660;10.200;2023-03-15T05:08:53;3.10;;;2.80;;
20336;SDS011;10326;53.660;10.200;2023-03-15T05:11:29;2.90;;;2.40;;
20336;SDS011;10326;53.660;10.200;2023-03-15T05:14:21;2.90;;;2.60;;
20336;SDS011;10326;53.660;10.200;2023-03-15T05:17:07;3.33;;;2.57;;
20336;SDS011;10326;53.660;10.200;2023-03-15T05:19:44;3.00;;;2.70;;
20336;SDS011;10326;53.660;10.200;2023-03-15T05:22:38;2.70;;;2.50;;
20336;SDS011;10326;53.660;10.200;2023-03-15T05:25:24;2.80;;;2.60;;
20336;SDS011;10326;53.660;10.200;2023-03-15T05:28:03;3.17;;;2.50;;
20336;SDS011;10326;53.660;10.200;2023-03-15T05:30:39;2.97;;;2.67;;
20336;SDS011;10326;53.660;10.200;2023-03-15T05:33:25;3.97;;;3.47;;
20336;SDS011;10326;53.660;10.200;2023-03-15T05:36:11;3.77;;;3.40;;
20336;SDS011;10326;53.660;10.200;2023-03-15T05:38:57;5.37;;;4.53;;
20336;SDS011;10326;53.660;10.200;2023-03-15T05:41:46;5.57;;;4.57;;
20336;SDS011;10326;53.660;10.200;2023-03-15T05:44:28;5.77;;;4.63;;
20336;SDS011;10326;53.660;10.200;2023-03-15T05:47:17;5.93;;;5.43;;
20336;SDS011;10326;53.660;10.200;2023-03-15T05:50:05;7.10;;;6.40;;
20336;SDS011;10326;53.660;10.200;2023-03-15T05:52:51;6.93;;;5.70;;
20336;SDS011;10326;53.660;10.200;2023-03-15T05:55:27;7.50;;;6.70;;
20336;SDS011;10326;53.660;10.200;2023-03-15T05:58:12;8.03;;;7.23;;
20336;SDS011;10326;53.660;10.200;2023-03-15T06:00:49;8.03;;;7.13;;
20336;SDS011;10326;53.660;10.200;2023-03-15T06:03:34;9.33;;;7.57;;
20336;SDS011;10326;53.660;10.200;2023-03-15T06:06:11;8.27;;;6.97;;
20336;SDS011;10326;53.660;10.200;2023-03-15T06:08:40;8.23;;;7.37;;
20336;SDS011;10326;53.660;10.200;2023-03-15T06:11:07;9.33;;;6.90;;
20336;SDS011;10326;53.660;10.200;2023-03-15T06:13:35;8.47;;;7.13;;
20336;SDS011;10326;53.660;10.200;2023-03-15T06:16:09;9.40;;;8.37;;
20336;SDS011;10326;53.660;10.200;2023-03-15T06:18:42;9.00;;;7.57;;
20336;SDS011;10326;53.660;10.200;2023-03-15T06:21:10;9.77;;;8.50;;
20336;SDS011;10326;53.660;10.200;2023-03-15T06:23:40;9.77;;;8.37;;
20336;SDS011;10326;53.660;10.200;2023-03-15T06:26:08;9.43;;;8.23;;
20336;SDS011;10326;53.660;10.200;2023-03-15T06:28:35;8.57;;;7.77;;
20336;SDS011;10326;53.660;10.200;2023-03-15T06:31:03;9.93;;;8.10;;
20336;SDS011;10326;53.660;10.200;2023-03-15T06:33:38;9.40;;;8.40;;
20336;SDS011;10326;53.660;10.200;2023-03-15T06:36:10;10.07;;;8.20;;
20336;SDS011;10326;53.660;10.200;2023-03-15T06:38:39;8.97;;;8.00;;
20336;SDS011;10326;53.660;10.200;2023-03-15T06:41:07;9.60;;;8.60;;
20336;SDS011;10326;53.660;10.200;2023-03-15T06:43:37;9.00;;;8.10;;
20336;SDS011;10326;53.660;10.200;2023-03-15T06:46:04;10.67;;;8.60;;
20336;SDS011;10326;53.660;10.200;2023-03-15T06:48:32;10.37;;;8.30;;
20336;SDS011;10326;53.660;10.200;2023-03-15T06:51:00;10.93;;;9.17;;
20336;SDS011;10326;53.660;10.200;2023-03-15T06:53:29;10.80;;;8.73;;
20336;SDS011;10326;53.660;10.200;2023-03-15T06:55:57;10.10;;;9.10;;
20336;SDS011;10326;53.660;10.200;2023-03-15T06:58:24;11.57;;;8.30;;
20336;SDS011;10326;53.660;10.200;2023-03-15T07:00:51;9.73;;;8.73;;
20336;SDS011;10326;53.660;10.200;2023-03-15T07:03:19;9.70;;;8.80;;
20336;SDS011;10326;53.660;10.200;2023-03-15T07:05:47;9.90;;;8.90;;
20336;SDS011;10326;53.660;10.200;2023-03-15T07:08:18;9.67;;;8.60;;
20336;SDS011;10326;53.660;10.200;2023-03-15T07:10:46;9.23;;;8.43;;
20336;SDS011;10326;53.660;10.200;2023-03-15T07:13:14;9.17;;;8.27;;
20336;SDS011;10326;53.660;10.200;2023-03-15T07:15:42;11.03;;;8.40;;
20336;SDS011;10326;53.660;10.200;2023-03-15T07:18:10;9.20;;;8.30;;
20336;SDS011;10326;53.660;10.200;2023-03-15T07:20:37;10.43;;;8.50;;
20336;SDS011;10326;53.660;10.200;2023-03-15T07:23:04;9.43;;;7.27;;
20336;SDS011;10326;53.660;10.200;2023-03-15T07:25:31;11.00;;;8.20;;
20336;SDS011;10326;53.660;10.200;2023-03-15T07:28:00;8.93;;;6.87;;
20336;SDS011;10326;53.660;10.200;2023-03-15T07:30:27;6.50;;;5.60;;
20336;SDS011;10326;53.660;10.200;2023-03-15T07:32:55;7.23;;;4.67;;
20336;SDS011;10326;53.660;10.200;2023-03-15T07:35:22;5.60;;;3.57;;
20336;SDS011;10326;53.660;10.200;2023-03-15T07:37:49;3.30;;;3.00;;
20336;SDS011;10326;53.660;10.200;2023-03-15T07:40:17;3.10;;;2.60;;
20336;SDS011;10326;53.660;10.200;2023-03-15T07:42:44;3.63;;;2.60;;
20336;SDS011;10326;53.660;10.200;2023-03-15T07:45:13;2.87;;;2.30;;
20336;SDS011;10326;53.660;10.200;2023-03-15T07:47:41;2.70;;;2.43;;
20336;SDS011;10326;53.660;10.200;2023-03-15T07:50:09;2.83;;;2.10;;
20336;SDS011;10326;53.660;10.200;2023-03-15T07:52:37;2.57;;;2.20;;
20336;SDS011;10326;53.660;10.200;2023-03-15T07:55:05;2.53;;;2.00;;
20336;SDS011;10326;53.660;10.200;2023-03-15T07:57:34;3.83;;;2.70;;
20336;SDS011;10326;53.660;10.200;2023-03-15T08:00:01;2.30;;;2.10;;
20336;SDS011;10326;53.660;10.200;2023-03-15T08:02:39;2.07;;;1.97;;
20336;SDS011;10326;53.660;10.200;2023-03-15T08:05:06;2.97;;;2.77;;
20336;SDS011;10326;53.660;10.200;2023-03-15T08:07:34;2.50;;;2.30;;
20336;SDS011;10326;53.660;10.200;2023-03-15T08:10:01;3.80;;;2.57;;
20336;SDS011;10326;53.660;10.200;2023-03-15T08:12:30;2.30;;;2.10;;
20336;SDS011;10326;53.660;10.200;2023-03-15T08:15:00;2.07;;;1.87;;
20336;SDS011;10326;53.660;10.200;2023-03-15T08:17:27;2.60;;;1.80;;
20336;SDS011;10326;53.660;10.200;2023-03-15T08:19:56;1.97;;;1.87;;
20336;SDS011;10326;53.660;10.200;2023-03-15T08:22:23;2.50;;;2.20;;
20336;SDS011;10326;53.660;10.200;2023-03-15T08:24:50;3.20;;;2.70;;
20336;SDS011;10326;53.660;10.200;2023-03-15T08:27:18;3.50;;;3.20;;
20336;SDS011;10326;53.660;10.200;2023-03-15T08:29:45;4.10;;;3.70;;
20336;SDS011;10326;53.660;10.200;2023-03-15T08:32:12;4.30;;;3.90;;
20336;SDS011;10326;53.660;10.200;2023-03-15T08:34:41;4.30;;;3.90;;
20336;SDS011;10326;53.660;10.200;2023-03-15T08:37:10;5.47;;;4.27;;
20336;SDS011;10326;53.660;10.200;2023-03-15T08:39:38;4.90;;;4.27;;
20336;SDS011;10326;53.660;10.200;2023-03-15T08:42:05;4.97;;;4.57;;
20336;SDS011;10326;53.660;10.200;2023-03-15T08:44:33;5.60;;;4.73;;
20336;SDS011;10326;53.660;10.200;2023-03-15T08:47:01;5.37;;;4.13;;
20336;SDS011;10326;53.660;10.200;2023-03-15T08:52:04;5.30;;;4.80;;
20336;SDS011;10326;53.660;10.200;2023-03-15T08:54:33;5.70;;;4.27;;
20336;SDS011;10326;53.660;10.200;2023-03-15T08:57:00;5.93;;;4.67;;
20336;SDS011;10326;53.660;10.200;2023-03-15T08:59:28;5.97;;;4.50;;
20336;SDS011;10326;53.660;10.200;2023-03-15T09:01:57;7.00;;;4.13;;
20336;SDS011;10326;53.660;10.200;2023-03-15T09:04:25;4.33;;;3.60;;
20336;SDS011;10326;53.660;10.200;2023-03-15T09:06:52;4.23;;;3.80;;
20336;SDS011;10326;53.660;10.200;2023-03-15T09:09:20;4.33;;;3.27;;
20336;SDS011;10326;53.660;10.200;2023-03-15T09:11:49;4.60;;;3.10;;
20336;SDS011;10326;53.660;10.200;2023-03-15T09:14:16;4.40;;;2.83;;
20336;SDS011;10326;53.660;10.200;2023-03-15T09:16:43;5.10;;;2.80;;
20336;SDS011;10326;53.660;10.200;2023-03-15T09:19:10;3.73;;;2.03;;
20336;SDS011;10326;53.660;10.200;2023-03-15T09:21:38;2.77;;;1.60;;
20336;SDS011;10326;53.660;10.200;2023-03-15T09:24:05;3.10;;;2.00;;
20336;SDS011;10326;53.660;10.200;2023-03-15T09:26:32;4.03;;;2.30;;
20336;SDS011;10326;53.660;10.200;2023-03-15T09:29:01;3.97;;;1.87;;
20336;SDS011;10326;53.660;10.200;2023-03-15T09:31:29;4.50;;;1.80;;
20336;SDS011;10326;53.660;10.200;2023-03-15T09:33:57;2.73;;;2.20;;
20336;SDS011;10326;53.660;10.200;2023-03-15T09:36:24;2.27;;;1.60;;
20336;SDS011;10326;53.660;10.200;2023-03-15T09:38:51;2.73;;;1.50;;
20336;SDS011;10326;53.660;10.200;2023-03-15T09:41:20;13.63;;;12.00;;
20336;SDS011;10326;53.660;10.200;2023-03-15T09:44:11;5.33;;;3.70;;
20336;SDS011;10326;53.660;10.200;2023-03-15T09:46:43;3.03;;;2.53;;
20336;SDS011;10326;53.660;10.200;2023-03-15T09:49:24;3.70;;;1.93;;
20336;SDS011;10326;53.660;10.200;2023-03-15T09:52:04;1.60;;;1.50;;
20336;SDS011;10326;53.660;10.200;2023-03-15T09:54:45;2.77;;;1.60;;
20336;SDS011;10326;53.660;10.200;2023-03-15T09:57:18;2.23;;;1.30;;
20336;SDS011;10326;53.660;10.200;2023-03-15T09:59:51;2.80;;;1.50;;
20336;SDS011;10326;53.660;10.200;2023-03-15T10:02:20;1.90;;;1.17;;
20336;SDS011;10326;53.660;10.200;2023-03-15T10:04:50;3.90;;;1.20;;
20336;SDS011;10326;53.660;10.200;2023-03-15T10:07:22;2.50;;;1.27;;
20336;SDS011;10326;53.660;10.200;2023-03-15T10:09:50;3.03;;;1.30;;
20336;SDS011;10326;53.660;10.200;2023-03-15T10:12:19;3.17;;;1.33;;
20336;SDS011;10326;53.660;10.200;2023-03-15T10:15:00;3.03;;;1.30;;
20336;SDS011;10326;53.660;10.200;2023-03-15T10:17:51;3.47;;;1.70;;
20336;SDS011;10326;53.660;10.200;2023-03-15T10:20:38;5.27;;;1.33;;
20336;SDS011;10326;53.660;10.200;2023-03-15T10:23:11;4.05;;;1.73;;
20336;SDS011;10326;53.660;10.200;2023-03-15T10:25:45;5.25;;;2.00;;
20336;SDS011;10326;53.660;10.200;2023-03-15T10:28:19;2.63;;;1.30;;
20336;SDS011;10326;53.660;10.200;2023-03-15T10:30:52;2.95;;;1.77;;
20336;SDS011;10326;53.660;10.200;2023-03-15T10:33:25;3.85;;;1.70;;
20336;SDS011;10326;53.660;10.200;2023-03-15T10:35:57;4.50;;;1.77;;
20336;SDS011;10326;53.660;10.200;2023-03-15T10:38:25;4.27;;;1.90;;
20336;SDS011;10326;53.660;10.200;2023-03-15T10:40:54;5.30;;;1.80;;
20336;SDS011;10326;53.660;10.200;2023-03-15T10:43:23;5.82;;;2.08;;
20336;SDS011;10326;53.660;10.200;2023-03-15T10:45:58;6.68;;;1.80;;
20336;SDS011;10326;53.660;10.200;2023-03-15T10:48:28;4.45;;;1.88;;
20336;SDS011;10326;53.660;10.200;2023-03-15T10:50:59;4.32;;;1.83;;
20336;SDS011;10326;53.660;10.200;2023-03-15T10:53:30;4.05;;;2.08;;
20336;SDS011;10326;53.660;10.200;2023-03-15T10:55:59;3.65;;;2.03;;
20336;SDS011;10326;53.660;10.200;2023-03-15T10:58:38;4.03;;;1.55;;
20336;SDS011;10326;53.660;10.200;2023-03-15T11:01:10;5.47;;;1.77;;
20336;SDS011;10326;53.660;10.200;2023-03-15T11:03:52;4.85;;;1.73;;
20336;SDS011;10326;53.660;10.200;2023-03-15T11:06:31;4.97;;;1.92;;
20336;SDS011;10326;53.660;10.200;2023-03-15T11:09:09;4.28;;;1.65;;
20336;SDS011;10326;53.660;10.200;2023-03-15T11:11:52;3.22;;;1.50;;
20336;SDS011;10326;53.660;10.200;2023-03-15T11:14:23;3.95;;;1.38;;
20336;SDS011;10326;53.660;10.200;2023-03-15T11:16:55;1.98;;;1.48;;
20336;SDS011;10326;53.660;10.200;2023-03-15T11:19:25;2.30;;;1.20;;
20336;SDS011;10326;53.660;10.200;2023-03-15T11:21:56;3.95;;;1.50;;
20336;SDS011;10326;53.660;10.200;2023-03-15T11:24:26;2.95;;;1.70;;
20336;SDS011;10326;53.660;10.200;2023-03-15T11:26:59;3.30;;;1.50;;
20336;SDS011;10326;53.660;10.200;2023-03-15T11:29:30;5.60;;;1.70;;
20336;SDS011;10326;53.660;10.200;2023-03-15T11:32:06;2.58;;;1.63;;
20336;SDS011;10326;53.660;10.200;2023-03-15T11:34:41;3.25;;;1.88;;
20336;SDS011;10326;53.660;10.200;2023-03-15T11:37:14;3.42;;;1.85;;
20336;SDS011;10326;53.660;10.200;2023-03-15T11:39:49;4.93;;;1.60;;
20336;SDS011;10326;53.660;10.200;2023-03-15T11:42:21;4.25;;;1.52;;
20336;SDS011;10326;53.660;10.200;2023-03-15T11:44:57;3.80;;;1.40;;
20336;SDS011;10326;53.660;10.200;2023-03-15T11:47:36;3.35;;;1.40;;
20336;SDS011;10326;53.660;10.200;2023-03-15T11:50:12;3.50;;;1.20;;
20336;SDS011;10326;53.660;10.200;2023-03-15T11:52:41;3.78;;;1.42;;
20336;SDS011;10326;53.660;10.200;2023-03-15T11:55:14;5.30;;;1.60;;
20336;SDS011;10326;53.660;10.200;2023-03-15T11:57:45;2.72;;;1.42;;
20336;SDS011;10326;53.660;10.200;2023-03-15T12:00:15;3.47;;;1.17;;
20336;SDS011;10326;53.660;10.200;2023-03-15T12:02:53;3.53;;;1.30;;
20336;SDS011;10326;53.660;10.200;2023-03-15T12:05:40;5.13;;;1.55;;
20336;SDS011;10326;53.660;10.200;2023-03-15T12:08:21;4.95;;;1.40;;
20336;SDS011;10326;53.660;10.200;2023-03-15T12:10:50;4.10;;;1.45;;
20336;SDS011;10326;53.660;10.200;2023-03-15T12:13:24;3.88;;;1.50;;
20336;SDS011;10326;53.660;10.200;2023-03-15T12:15:54;2.42;;;1.23;;
20336;SDS011;10326;53.660;10.200;2023-03-15T12:18:32;2.67;;;1.30;;
20336;SDS011;10326;53.660;10.200;2023-03-15T12:21:13;3.60;;;1.20;;
20336;SDS011;10326;53.660;10.200;2023-03-15T12:23:54;3.38;;;1.60;;
20336;SDS011;10326;53.660;10.200;2023-03-15T12:26:39;3.72;;;1.60;;
20336;SDS011;10326;53.660;10.200;2023-03-15T12:29:11;6.20;;;1.75;;
20336;SDS011;10326;53.660;10.200;2023-03-15T12:31:49;5.82;;;3.00;;
20336;SDS011;10326;53.660;10.200;2023-03-15T12:34:24;3.95;;;1.65;;
20336;SDS011;10326;53.660;10.200;2023-03-15T12:36:56;3.33;;;1.20;;
20336;SDS011;10326;53.660;10.200;2023-03-15T12:39:44;4.30;;;1.70;;
20336;SDS011;10326;53.660;10.200;2023-03-15T12:45:35;5.20;;;1.60;;
20336;SDS011;10326;53.660;10.200;2023-03-15T12:48:23;4.68;;;1.33;;
20336;SDS011;10326;53.660;10.200;2023-03-15T12:50:55;2.03;;;1.20;;
20336;SDS011;10326;53.660;10.200;2023-03-15T12:54:06;6.45;;;1.88;;
20336;SDS011;10326;53.660;10.200;2023-03-15T12:56:42;4.00;;;1.55;;
20336;SDS011;10326;53.660;10.200;2023-03-15T12:59:16;3.22;;;1.45;;
20336;SDS011;10326;53.660;10.200;2023-03-15T13:02:01;6.75;;;1.30;;
20336;SDS011;10326;53.660;10.200;2023-03-15T13:04:42;3.47;;;1.33;;
20336;SDS011;10326;53.660;10.200;2023-03-15T13:07:19;5.38;;;1.73;;
20336;SDS011;10326;53.660;10.200;2023-03-15T13:10:01;5.15;;;1.70;;
20336;SDS011;10326;53.660;10.200;2023-03-15T13:12:51;4.38;;;1.70;;
20336;SDS011;10326;53.660;10.200;2023-03-15T13:15:25;6.60;;;2.92;;
20336;SDS011;10326;53.660;10.200;2023-03-15T13:18:02;5.35;;;2.17;;
20336;SDS011;10326;53.660;10.200;2023-03-15T13:20:45;5.13;;;2.40;;
20336;SDS011;10326;53.660;10.200;2023-03-15T13:23:26;5.63;;;2.88;;
20336;SDS011;10326;53.660;10.200;2023-03-15T13:26:11;4.22;;;1.27;;
20336;SDS011;10326;53.660;10.200;2023-03-15T13:28:53;4.78;;;1.50;;
20336;SDS011;10326;53.660;10.200;2023-03-15T13:31:26;5.80;;;2.00;;
20336;SDS011;10326;53.660;10.200;2023-03-15T13:33:56;4.72;;;1.85;;
20336;SDS011;10326;53.660;10.200;2023-03-15T13:36:40;7.43;;;2.10;;
20336;SDS011;10326;53.660;10.200;2023-03-15T13:39:15;3.58;;;1.60;;
20336;SDS011;10326;53.660;10.200;2023-03-15T13:41:47;4.10;;;1.83;;
20336;SDS011;10326;53.660;10.200;2023-03-15T13:44:17;5.13;;;2.28;;
20336;SDS011;10326;53.660;10.200;2023-03-15T13:46:48;4.85;;;2.20;;
20336;SDS011;10326;53.660;10.200;2023-03-15T13:49:19;6.22;;;1.80;;
20336;SDS011;10326;53.660;10.200;2023-03-15T13:51:47;6.05;;;1.60;;
20336;SDS011;10326;53.660;10.200;2023-03-15T13:54:17;4.38;;;1.80;;
20336;SDS011;10326;53.660;10.200;2023-03-15T13:56:59;8.23;;;1.60;;
20336;SDS011;10326;53.660;10.200;2023-03-15T13:59:37;4.40;;;1.90;;
20336;SDS011;10326;53.660;10.200;2023-03-15T14:02:15;5.22;;;2.00;;
20336;SDS011;10326;53.660;10.200;2023-03-15T14:04:51;9.25;;;1.60;;
20336;SDS011;10326;53.660;10.200;2023-03-15T14:07:32;3.47;;;1.70;;
20336;SDS011;10326;53.660;10.200;2023-03-15T14:10:26;5.95;;;2.00;;
20336;SDS011;10326;53.660;10.200;2023-03-15T14:13:15;4.30;;;1.30;;
20336;SDS011;10326;53.660;10.200;2023-03-15T14:15:54;6.93;;;2.15;;
20336;SDS011;10326;53.660;10.200;2023-03-15T14:18:34;4.25;;;1.33;;
20336;SDS011;10326;53.660;10.200;2023-03-15T14:21:12;4.57;;;1.48;;
20336;SDS011;10326;53.660;10.200;2023-03-15T14:23:48;6.25;;;2.08;;
20336;SDS011;10326;53.660;10.200;2023-03-15T14:26:26;4.78;;;1.65;;
20336;SDS011;10326;53.660;10.200;2023-03-15T14:29:04;6.70;;;1.60;;
20336;SDS011;10326;53.660;10.200;2023-03-15T14:31:46;6.25;;;1.35;;
20336;SDS011;10326;53.660;10.200;2023-03-15T14:34:23;5.72;;;1.50;;
20336;SDS011;10326;53.660;10.200;2023-03-15T14:37:01;6.07;;;1.98;;
20336;SDS011;10326;53.660;10.200;2023-03-15T14:39:36;8.50;;;2.00;;
20336;SDS011;10326;53.660;10.200;2023-03-15T14:42:08;4.72;;;1.58;;
20336;SDS011;10326;53.660;10.200;2023-03-15T14:44:36;5.60;;;1.70;;
20336;SDS011;10326;53.660;10.200;2023-03-15T14:47:05;7.75;;;1.98;;
20336;SDS011;10326;53.660;10.200;2023-03-15T14:49:38;9.73;;;2.13;;
20336;SDS011;10326;53.660;10.200;2023-03-15T14:52:05;4.47;;;1.40;;
20336;SDS011;10326;53.660;10.200;2023-03-15T14:54:33;5.90;;;1.80;;
20336;SDS011;10326;53.660;10.200;2023-03-15T14:57:00;5.25;;;1.65;;
20336;SDS011;10326;53.660;10.200;2023-03-15T14:59:29;7.93;;;2.22;;
20336;SDS011;10326;53.660;10.200;2023-03-15T15:01:56;10.27;;;1.98;;
20336;SDS011;10326;53.660;10.200;2023-03-15T15:04:28;9.32;;;2.70;;
20336;SDS011;10326;53.660;10.200;2023-03-15T15:06:59;3.78;;;1.30;;
20336;SDS011;10326;53.660;10.200;2023-03-15T15:09:27;7.10;;;2.30;;
20336;SDS011;10326;53.660;10.200;2023-03-15T15:11:55;10.02;;;2.20;;
20336;SDS011;10326;53.660;10.200;2023-03-15T15:14:23;5.97;;;2.00;;